createdAt,value
2019-06-07T17:11:32.942Z,100460.42
2019-06-07T17:14:02.121Z,100489.09
2019-06-07T17:16:35.050Z,100494.17
2019-06-07T17:19:03.890Z,100501.00
2019-06-07T17:21:32.835Z,100504.30
2019-06-07T17:24:01.807Z,100489.61
2019-06-07T17:26:30.591Z,100492.72
2019-06-07T17:28:59.461Z,100500.49
2019-06-07T17:31:28.276Z,100483.41
2019-06-07T17:33:57.101Z,100491.94
2019-06-07T17:36:25.867Z,100484.30
2019-06-07T17:38:54.686Z,100482.44
2019-06-07T17:41:23.545Z,100486.97
2019-06-07T17:44:00.010Z,100484.77
2019-06-07T17:46:23.005Z,100490.05
2019-06-07T17:48:51.790Z,100487.14
2019-06-07T17:51:20.592Z,100500.22
2019-06-07T17:53:49.944Z,100487.03
2019-06-07T17:56:20.263Z,100483.95
2019-06-07T17:58:50.459Z,100469.15
2019-06-07T18:01:19.372Z,100466.62
2019-06-07T18:03:49.173Z,100458.80
2019-06-07T18:06:19.484Z,100462.44
2019-06-07T18:08:49.547Z,100472.15
2019-06-07T18:11:18.440Z,100470.95
2019-06-07T18:13:48.238Z,100468.86
2019-06-07T18:16:18.476Z,100460.23
2019-06-07T18:18:48.537Z,100465.55
2019-06-07T18:21:17.392Z,100449.20
2019-06-07T18:23:46.331Z,100442.38
2019-06-07T18:26:15.202Z,100440.23
2019-06-07T18:28:44.358Z,100446.45
2019-06-07T18:31:13.398Z,100442.56
2019-06-07T18:33:42.242Z,100445.66
2019-06-07T18:36:11.051Z,100474.17
2019-06-07T18:38:41.284Z,100512.41
2019-06-07T18:41:10.858Z,100522.00
2019-06-07T18:43:39.719Z,100524.23
2019-06-07T18:46:08.644Z,100522.09
2019-06-07T18:48:37.619Z,100504.70
2019-06-07T18:51:06.607Z,100496.61
2019-06-07T18:53:35.430Z,100507.56
2019-06-07T18:56:05.194Z,100513.06
2019-06-07T18:58:34.128Z,100443.59
2019-06-07T19:01:02.953Z,100543.48
2019-06-07T19:03:31.844Z,100536.48
2019-06-07T19:06:03.688Z,100530.67
2019-06-07T19:08:32.558Z,100524.67
2019-06-07T19:11:01.502Z,100505.47
2019-06-07T19:13:30.378Z,100489.38
2019-06-07T19:15:59.653Z,100487.44
2019-06-07T19:18:28.500Z,100506.78
2019-06-07T19:20:58.559Z,100507.66
2019-06-07T19:23:27.473Z,100521.87
2019-06-07T19:25:56.434Z,100520.91
2019-06-07T19:28:25.447Z,100524.00
2019-06-07T19:30:59.163Z,100544.28
2019-06-07T19:33:28.027Z,100564.75
2019-06-07T19:35:57.467Z,100575.96
2019-06-07T19:38:26.344Z,100535.69
2019-06-07T19:40:55.870Z,100579.84
2019-06-07T19:43:24.807Z,100572.30
2019-06-07T19:45:54.065Z,100574.12
2019-06-07T19:48:30.409Z,100570.39
2019-06-07T19:50:59.221Z,100559.84
2019-06-07T19:53:28.062Z,100540.16
2019-06-07T19:55:57.114Z,100557.55
2019-06-07T19:58:25.995Z,100555.72
2019-06-07T20:00:55.523Z,100527.59
2019-06-07T20:03:26.135Z,100493.35
2019-06-07T20:05:58.037Z,100492.26
2019-06-07T20:08:25.540Z,100478.83
2019-06-07T20:10:54.490Z,100497.28
2019-06-07T20:13:23.312Z,100529.03
2019-06-07T20:15:52.078Z,100524.11
2019-06-07T20:18:21.119Z,100547.92
2019-06-07T20:20:49.958Z,100549.95
2019-06-07T20:23:18.718Z,100557.23
2019-06-07T20:25:47.622Z,100543.13
2019-06-07T20:28:16.379Z,100534.72
2019-06-07T20:30:45.470Z,100532.30
2019-06-07T20:33:14.254Z,100534.75
2019-06-07T20:35:43.088Z,100538.41
2019-06-07T20:38:13.762Z,100538.67
2019-06-07T20:40:42.581Z,100564.52
2019-06-07T20:43:11.402Z,100564.95
2019-06-07T20:45:40.186Z,100560.87
2019-06-07T20:48:09.171Z,100573.42
2019-06-07T20:50:38.069Z,100572.57
2019-06-07T20:53:07.250Z,100579.41
2019-06-07T20:55:36.814Z,100586.75
2019-06-07T20:58:05.623Z,100580.25
2019-06-07T21:00:34.529Z,100599.13
2019-06-07T21:03:05.330Z,100604.62
2019-06-07T21:05:34.435Z,100599.40
2019-06-07T21:08:04.141Z,100599.64
2019-06-07T21:10:33.752Z,100588.78
2019-06-07T21:13:03.794Z,100578.98
2019-06-07T21:15:47.648Z,100578.17
2019-06-07T21:18:04.822Z,100580.08
2019-06-07T21:20:34.110Z,100592.23
2019-06-07T21:23:03.121Z,100588.17
2019-06-07T21:25:32.057Z,100585.16
2019-06-07T21:28:00.983Z,100586.52
2019-06-07T21:30:29.846Z,100587.36
2019-06-07T21:32:58.669Z,100586.00
2019-06-07T21:35:27.509Z,100579.31
2019-06-07T21:37:56.403Z,100568.38
2019-06-07T21:40:25.212Z,100560.62
2019-06-07T21:42:54.029Z,100563.74
2019-06-07T21:45:22.932Z,100574.42
2019-06-07T21:47:51.880Z,100588.66
2019-06-07T21:50:21.104Z,100577.77
2019-06-07T21:52:50.018Z,100578.94
2019-06-07T21:55:18.925Z,100584.19
2019-06-07T21:57:47.806Z,100580.68
2019-06-07T22:00:31.170Z,100586.44
2019-06-07T22:03:00.016Z,100591.70
2019-06-07T22:05:28.873Z,100593.91
2019-06-07T22:07:57.722Z,100582.22
2019-06-07T22:10:26.627Z,100583.06
2019-06-07T22:12:55.400Z,100589.61
2019-06-07T22:15:33.329Z,100582.27
2019-06-07T22:17:57.091Z,100580.66
2019-06-07T22:20:25.947Z,100581.52
2019-06-07T22:22:55.021Z,100587.22
2019-06-07T22:25:24.075Z,100587.78
2019-06-07T22:27:53.288Z,100581.00
2019-06-07T22:30:22.119Z,100578.33
2019-06-07T22:32:51.752Z,100577.02
2019-06-07T22:35:20.776Z,100580.20
2019-06-07T22:37:49.558Z,100575.05
2019-06-07T22:40:18.695Z,100569.92
2019-06-07T22:42:47.509Z,100571.82
2019-06-07T22:45:17.099Z,100569.42
2019-06-07T22:47:45.955Z,100573.70
2019-06-07T22:50:16.309Z,100564.53
2019-06-07T22:52:45.306Z,100562.37
2019-06-07T22:55:14.348Z,100563.19
2019-06-07T22:57:56.584Z,100556.86
2019-06-07T23:00:27.202Z,100562.27
2019-06-07T23:02:56.499Z,100568.25
2019-06-07T23:05:25.342Z,100566.37
2019-06-07T23:07:54.142Z,100560.69
2019-06-07T23:10:22.996Z,100549.04
2019-06-07T23:12:51.997Z,100547.59
2019-06-07T23:15:21.088Z,100548.41
2019-06-07T23:17:49.886Z,100543.77
2019-06-07T23:20:20.157Z,100547.61
2019-06-07T23:22:49.068Z,100545.11
2019-06-07T23:25:22.122Z,100542.05
2019-06-07T23:27:48.899Z,100539.91
2019-06-07T23:30:18.746Z,100549.70
2019-06-07T23:32:47.767Z,100541.23
2019-06-07T23:35:17.382Z,100539.02
2019-06-07T23:37:46.319Z,100543.08
2019-06-07T23:40:15.506Z,100539.22
2019-06-07T23:42:44.282Z,100544.36
2019-06-07T23:45:13.801Z,100538.13
2019-06-07T23:47:42.835Z,100533.23
2019-06-07T23:50:11.838Z,100527.44
2019-06-07T23:52:40.616Z,100532.34
2019-06-07T23:55:09.648Z,100530.36
2019-06-07T23:57:38.490Z,100526.73
